Time;durP1;ratioP1;P1;durP2;ratioP2;P2;SDS_P1;SDS_P2;PMS_P1;PMS_P2;Temp;Humidity;BMP_temperature;BMP_pressure;BME280_temperature;BME280_humidity;BME280_pressure;Samples;Min_cycle;Max_cycle;Signal;HPM_P1;HPM_P2
2024/03/01 05:30:36;;;;;;;0.10;0.10;;;6.50;93.00;;;;;;5676818;24;20049;-75
2024/03/01 05:33:02;;;;;;;0.10;0.10;;;6.60;93.30;;;;;;4855811;29;20033;-74
2024/03/01 05:35:28;;;;;;;0.10;0.10;;;6.60;93.20;;;;;;4863320;29;20034;-74
2024/03/01 05:37:58;;;;;;;0.10;0.10;;;6.70;93.20;;;;;;4843466;29;20494;-74
2024/03/01 05:40:24;;;;;;;0.10;0.10;;;6.70;93.10;;;;;;4847643;29;20032;-74
2024/03/01 05:42:50;;;;;;;0.15;0.15;;;6.80;93.20;;;;;;4866615;29;20374;-74
2024/03/01 05:45:16;;;;;;;0.10;0.10;;;6.80;93.20;;;;;;4850286;29;20099;-74
2024/03/01 05:47:43;;;;;;;0.10;0.10;;;6.90;93.30;;;;;;4852479;29;20038;-74
2024/03/01 05:50:14;;;;;;;0.10;0.10;;;6.90;93.30;;;;;;4861629;29;20033;-74
2024/03/01 05:52:42;;;;;;;0.10;0.10;;;7.00;93.40;;;;;;4864013;29;20034;-74
2024/03/01 05:55:12;;;;;;;0.10;0.10;;;7.10;93.50;;;;;;4848034;29;20061;-74
2024/03/01 05:57:39;;;;;;;0.10;0.10;;;7.20;93.40;;;;;;4831630;29;20050;-74
2024/03/01 06:00:17;;;;;;;0.10;0.10;;;7.30;93.50;;;;;;4848274;29;20033;-74
2024/03/01 06:02:44;;;;;;;0.10;0.10;;;7.40;93.30;;;;;;4878040;29;20053;-74
2024/03/01 06:05:10;;;;;;;0.10;0.10;;;7.50;93.20;;;;;;4866426;29;20438;-74
2024/03/01 06:07:36;;;;;;;0.10;0.10;;;7.50;93.10;;;;;;4866547;29;20108;-74
2024/03/01 06:10:02;;;;;;;0.10;0.10;;;7.60;92.90;;;;;;4866703;29;20052;-74
2024/03/01 06:12:28;;;;;;;0.10;0.10;;;7.70;92.90;;;;;;4851668;29;20037;-75
2024/03/01 06:14:53;;;;;;;0.00;0.00;;;7.70;92.80;;;;;;4865853;29;20108;-74
2024/03/01 06:17:19;;;;;;;0.10;0.10;;;7.70;92.60;;;;;;4866549;29;20056;-74
2024/03/01 06:19:45;;;;;;;0.10;0.10;;;7.70;92.50;;;;;;4853040;29;20042;-74
2024/03/01 06:22:11;;;;;;;0.10;0.10;;;7.70;92.40;;;;;;4859291;29;20018;-74
2024/03/01 06:24:37;;;;;;;0.10;0.10;;;7.70;92.30;;;;;;4846089;29;20094;-75
2024/03/01 06:27:03;;;;;;;0.10;0.10;;;7.70;92.20;;;;;;4848108;29;20038;-74
2024/03/01 06:29:29;;;;;;;0.10;0.10;;;7.60;92.10;;;;;;4847294;29;20090;-74
2024/03/01 06:31:54;;;;;;;0.10;0.10;;;7.60;92.00;;;;;;4847833;29;20054;-74
2024/03/01 06:34:21;;;;;;;0.10;0.10;;;7.60;92.00;;;;;;4859201;29;20036;-74
2024/03/01 06:36:46;;;;;;;0.10;0.10;;;7.60;91.90;;;;;;4845632;29;20033;-74
2024/03/01 06:39:12;;;;;;;0.10;0.10;;;7.60;92.00;;;;;;4847560;29;20022;-74
2024/03/01 06:41:37;;;;;;;0.10;0.10;;;7.60;91.90;;;;;;4851140;29;20503;-74
2024/03/01 06:44:03;;;;;;;0.10;0.10;;;7.70;91.90;;;;;;4847168;29;20034;-74
2024/03/01 06:46:29;;;;;;;0.10;0.10;;;7.60;91.90;;;;;;4846352;29;20554;-73
2024/03/01 06:48:55;;;;;;;0.10;0.10;;;7.70;91.90;;;;;;4844810;29;20088;-74
2024/03/01 06:51:20;;;;;;;0.10;0.10;;;7.70;91.90;;;;;;4847390;29;20044;-74
2024/03/01 06:53:46;;;;;;;0.10;0.10;;;7.70;92.00;;;;;;4847009;29;20030;-74
2024/03/01 06:56:14;;;;;;;0.10;0.10;;;7.80;92.00;;;;;;4847283;29;20030;-74
2024/03/01 06:58:40;;;;;;;0.10;0.10;;;7.80;92.00;;;;;;4855034;29;20048;-74
2024/03/01 07:01:07;;;;;;;0.10;0.10;;;7.80;92.00;;;;;;4865777;29;20036;-74
2024/03/01 07:03:33;;;;;;;0.10;0.10;;;7.80;92.00;;;;;;4848886;29;20026;-74
2024/03/01 07:05:59;;;;;;;0.10;0.10;;;7.90;91.90;;;;;;4865725;29;20037;-74
2024/03/01 07:08:24;;;;;;;0.10;0.10;;;7.80;91.80;;;;;;4844769;29;20634;-74
2024/03/01 07:10:52;;;;;;;0.10;0.10;;;7.90;91.80;;;;;;4846753;29;20129;-74
2024/03/01 07:13:18;;;;;;;0.10;0.10;;;7.90;91.90;;;;;;4846922;29;20029;-74
2024/03/01 07:15:43;;;;;;;0.10;0.10;;;7.90;91.80;;;;;;4847110;29;20041;-74
2024/03/01 07:18:09;;;;;;;0.10;0.10;;;8.00;91.80;;;;;;4830268;29;20372;-74
2024/03/01 07:20:35;;;;;;;0.10;0.10;;;8.00;91.90;;;;;;4847202;29;20046;-74
2024/03/01 07:23:00;;;;;;;0.10;0.10;;;8.00;91.80;;;;;;4864379;29;20049;-74
2024/03/01 07:25:26;;;;;;;0.10;0.10;;;7.90;91.70;;;;;;4849515;29;20053;-74
2024/03/01 07:27:51;;;;;;;0.10;0.10;;;8.00;91.70;;;;;;4846506;29;20030;-74
2024/03/01 07:30:17;;;;;;;0.10;0.10;;;8.00;91.70;;;;;;4846727;29;20041;-75
2024/03/01 07:32:43;;;;;;;0.10;0.10;;;7.90;91.50;;;;;;4845435;29;20085;-74
2024/03/01 07:35:08;;;;;;;0.10;0.10;;;8.00;91.60;;;;;;4864400;29;20034;-74
2024/03/01 07:37:34;;;;;;;0.10;0.10;;;7.90;91.50;;;;;;4861894;29;20036;-74
2024/03/01 07:40:00;;;;;;;0.10;0.10;;;8.00;91.40;;;;;;4864820;29;20490;-74
2024/03/01 07:42:26;;;;;;;0.10;0.10;;;8.00;91.50;;;;;;4844556;29;20053;-74
2024/03/01 07:44:52;;;;;;;0.10;0.10;;;7.90;90.00;;;;;;4830185;29;20414;-74
2024/03/01 07:47:18;;;;;;;0.10;0.10;;;7.80;90.10;;;;;;4846331;29;20121;-74
2024/03/01 07:49:47;;;;;;;0.10;0.10;;;7.70;89.80;;;;;;4846451;29;20069;-74
2024/03/01 07:52:13;;;;;;;0.10;0.10;;;7.60;89.30;;;;;;4846011;29;20531;-74
2024/03/01 07:54:39;;;;;;;0.10;0.10;;;7.60;89.30;;;;;;4846406;29;20034;-74
2024/03/01 07:57:04;;;;;;;0.10;0.10;;;7.50;89.40;;;;;;4846311;29;20026;-74
2024/03/01 07:59:30;;;;;;;0.10;0.10;;;7.50;89.40;;;;;;4846132;29;20482;-74
2024/03/01 08:01:57;;;;;;;0.10;0.10;;;7.60;89.50;;;;;;4846263;29;20040;-74
2024/03/01 08:04:23;;;;;;;0.10;0.10;;;7.80;89.10;;;;;;4859282;29;20078;-74
2024/03/01 08:06:48;;;;;;;0.10;0.10;;;7.90;88.20;;;;;;4864191;29;20048;-74
2024/03/01 08:09:16;;;;;;;0.10;0.10;;;7.90;88.60;;;;;;4850419;29;20033;-74
2024/03/01 08:11:44;;;;;;;0.10;0.10;;;7.80;88.10;;;;;;4846327;29;20022;-74
2024/03/01 08:14:31;;;;;;;0.13;0.13;;;7.80;88.20;;;;;;4845413;29;20069;-74
2024/03/01 08:16:57;;;;;;;0.10;0.10;;;7.70;88.50;;;;;;4845971;29;20033;-74
2024/03/01 08:19:35;;;;;;;0.10;0.10;;;7.70;88.50;;;;;;4845785;29;20092;-74
2024/03/01 08:22:16;;;;;;;0.10;0.10;;;7.70;88.70;;;;;;4855795;29;20093;-74
2024/03/01 08:24:43;;;;;;;0.10;0.10;;;7.60;88.70;;;;;;4843503;29;20141;-74
2024/03/01 08:27:09;;;;;;;0.10;0.10;;;7.60;88.90;;;;;;4845843;29;20468;-74
2024/03/01 08:29:36;;;;;;;0.10;0.10;;;7.60;88.90;;;;;;4845596;29;20090;-74
2024/03/01 08:32:07;;;;;;;0.10;0.10;;;7.60;88.80;;;;;;4845790;29;20089;-74
2024/03/01 08:34:55;;;;;;;0.10;0.10;;;7.60;88.70;;;;;;4863730;29;20097;-74
2024/03/01 08:37:24;;;;;;;0.10;0.10;;;7.70;88.90;;;;;;4864249;29;20026;-74
2024/03/01 08:39:53;;;;;;;0.10;0.10;;;7.80;88.70;;;;;;4864050;29;20036;-74
2024/03/01 08:42:20;;;;;;;0.15;0.15;;;7.90;88.50;;;;;;4860034;29;20025;-74
2024/03/01 08:44:50;;;;;;;0.20;0.20;;;8.00;88.40;;;;;;4845603;29;20041;-74
2024/03/01 08:47:21;;;;;;;0.20;0.20;;;8.20;88.30;;;;;;4845520;29;20037;-74
2024/03/01 08:50:22;;;;;;;0.80;0.80;;;8.50;87.80;;;;;;4845689;29;20379;-73
2024/03/01 08:52:49;;;;;;;0.70;0.70;;;10.20;86.00;;;;;;4845250;29;20030;-74
2024/03/01 08:55:20;;;;;;;0.60;0.60;;;11.50;83.50;;;;;;4844249;29;20045;-74
2024/03/01 08:57:48;;;;;;;0.40;0.40;;;12.40;80.00;;;;;;4845477;29;20030;-74
2024/03/01 09:00:38;;;;;;;0.93;0.93;;;12.90;76.70;;;;;;4850637;29;20537;-74
2024/03/01 09:03:05;;;;;;;0.40;0.40;;;13.50;76.30;;;;;;4839103;29;20050;-74
2024/03/01 09:05:34;;;;;;;0.20;0.20;;;13.80;75.10;;;;;;4847222;29;20490;-74
2024/03/01 09:08:00;;;;;;;0.10;0.10;;;13.00;74.00;;;;;;4850593;29;20059;-74
2024/03/01 09:10:34;;;;;;;0.10;0.10;;;12.30;74.00;;;;;;4845571;29;20708;-74
2024/03/01 09:13:03;;;;;;;0.10;0.10;;;11.60;75.30;;;;;;4845396;29;20065;-74
2024/03/01 09:15:39;;;;;;;0.10;0.10;;;11.10;76.50;;;;;;4846281;29;20033;-74
2024/03/01 09:18:16;;;;;;;0.10;0.10;;;10.60;76.70;;;;;;4848822;29;20033;-75
2024/03/01 09:20:44;;;;;;;0.10;0.10;;;10.30;77.90;;;;;;4849185;29;20062;-74
2024/03/01 09:23:14;;;;;;;0.10;0.10;;;10.00;78.10;;;;;;4867596;29;20044;-75
2024/03/01 09:25:51;;;;;;;0.10;0.10;;;9.80;79.40;;;;;;4861482;29;20068;-74
2024/03/01 09:28:20;;;;;;;0.13;0.13;;;9.80;79.30;;;;;;4847668;29;20026;-74
2024/03/01 09:30:51;;;;;;;0.10;0.10;;;9.80;78.40;;;;;;4844573;29;20066;-76
2024/03/01 09:33:19;;;;;;;0.10;0.10;;;9.70;78.50;;;;;;4847308;29;20042;-74
2024/03/01 09:35:45;;;;;;;0.10;0.10;;;9.80;79.10;;;;;;4848699;29;20405;-74
2024/03/01 09:38:15;;;;;;;0.10;0.10;;;9.80;79.20;;;;;;4847236;29;20051;-74
2024/03/01 09:40:53;;;;;;;0.20;0.20;;;9.70;79.50;;;;;;4841695;29;20026;-74
2024/03/01 09:43:29;;;;;;;0.20;0.20;;;9.80;78.40;;;;;;4830101;29;20048;-74
2024/03/01 09:46:01;;;;;;;0.30;0.30;;;9.90;77.60;;;;;;4831274;29;20038;-74
2024/03/01 09:48:42;;;;;;;0.10;0.10;;;10.30;78.50;;;;;;4829965;29;20067;-74
2024/03/01 09:51:45;;;;;;;0.13;0.13;;;10.70;76.10;;;;;;4828866;29;20034;-74
2024/03/01 09:54:36;;;;;;;0.10;0.10;;;10.50;76.10;;;;;;4830029;29;20031;-74
2024/03/01 09:57:20;;;;;;;0.10;0.10;;;10.10;75.90;;;;;;4846745;29;20037;-74
2024/03/01 09:59:54;;;;;;;0.10;0.10;;;9.80;75.50;;;;;;4829848;29;20064;-74
2024/03/01 10:02:41;;;;;;;0.10;0.10;;;9.70;77.60;;;;;;4829906;29;20101;-74
2024/03/01 10:05:22;;;;;;;0.10;0.10;;;9.60;76.30;;;;;;4847358;29;20030;-74
2024/03/01 10:07:51;;;;;;;0.10;0.10;;;9.70;78.00;;;;;;4847533;29;20467;-74
2024/03/01 10:10:54;;;;;;;0.10;0.10;;;9.70;76.50;;;;;;4848188;29;20037;-74
2024/03/01 10:13:55;;;;;;;0.20;0.20;;;9.70;77.20;;;;;;4847368;29;20043;-74
2024/03/01 10:17:00;;;;;;;0.10;0.10;;;9.70;76.70;;;;;;4798338;29;20077;-74
2024/03/01 10:19:54;;;;;;;0.22;0.22;;;9.70;76.90;;;;;;4828121;29;20034;-74
2024/03/01 10:23:07;;;;;;;0.20;0.20;;;9.90;76.20;;;;;;4836970;29;20066;-74
2024/03/01 10:25:41;;;;;;;0.20;0.20;;;10.30;76.30;;;;;;4806488;29;20105;-74
2024/03/01 10:28:31;;;;;;;0.20;0.20;;;10.50;75.10;;;;;;4830709;29;20318;-73
2024/03/01 10:31:04;;;;;;;0.20;0.20;;;10.60;74.80;;;;;;4835695;29;20065;-73
2024/03/01 10:33:47;;;;;;;0.20;0.20;;;10.80;75.20;;;;;;4851773;29;20559;-74
2024/03/01 10:36:43;;;;;;;0.20;0.20;;;11.00;73.80;;;;;;4847651;29;20030;-74
2024/03/01 10:39:15;;;;;;;0.10;0.10;;;11.20;73.90;;;;;;4840341;29;20038;-74
2024/03/01 10:42:05;;;;;;;0.20;0.20;;;11.30;73.00;;;;;;4850327;29;20108;-74
2024/03/01 10:44:59;;;;;;;0.10;0.10;;;11.30;73.20;;;;;;4847350;29;20036;-74
2024/03/01 10:47:29;;;;;;;0.10;0.10;;;11.20;71.60;;;;;;4830833;29;20029;-74
2024/03/01 10:50:03;;;;;;;0.10;0.10;;;11.20;72.70;;;;;;4847276;29;20102;-74
2024/03/01 10:52:38;;;;;;;0.10;0.10;;;11.00;73.10;;;;;;4846281;29;20030;-74
2024/03/01 10:55:10;;;;;;;0.10;0.10;;;10.80;72.90;;;;;;4848928;29;20042;-74
2024/03/01 10:57:45;;;;;;;0.10;0.10;;;10.70;73.30;;;;;;4848498;29;20577;-74
2024/03/01 11:00:12;;;;;;;0.10;0.10;;;10.60;73.50;;;;;;4865949;29;20033;-74
2024/03/01 11:02:57;;;;;;;0.10;0.10;;;10.50;73.80;;;;;;4865860;29;20100;-74
2024/03/01 11:05:39;;;;;;;0.10;0.10;;;10.60;74.50;;;;;;4865535;29;20029;-74
2024/03/01 11:08:31;;;;;;;0.10;0.10;;;10.50;74.00;;;;;;4847882;29;20069;-75
2024/03/01 11:11:11;;;;;;;0.10;0.10;;;10.70;75.00;;;;;;4846149;29;20033;-74
2024/03/01 11:13:38;;;;;;;0.10;0.10;;;10.80;74.30;;;;;;4845715;29;20037;-74
2024/03/01 11:16:08;;;;;;;0.10;0.10;;;10.90;74.40;;;;;;4840400;29;20514;-74
2024/03/01 11:18:41;;;;;;;0.10;0.10;;;10.90;73.80;;;;;;4865326;29;20024;-74
2024/03/01 11:21:10;;;;;;;0.10;0.10;;;10.80;73.90;;;;;;4848490;29;20094;-75
2024/03/01 11:23:57;;;;;;;0.10;0.10;;;10.70;73.10;;;;;;4848471;29;20042;-74
2024/03/01 11:26:30;;;;;;;0.10;0.10;;;10.60;73.80;;;;;;4854517;29;20093;-74
2024/03/01 11:29:00;;;;;;;0.10;0.10;;;10.40;74.00;;;;;;4865030;29;20037;-74
2024/03/01 11:31:30;;;;;;;0.10;0.10;;;10.30;74.50;;;;;;4865108;29;20069;-74
2024/03/01 11:34:01;;;;;;;0.13;0.13;;;10.10;74.50;;;;;;4856755;29;20120;-74
2024/03/01 11:36:46;;;;;;;0.10;0.10;;;10.10;74.70;;;;;;4848413;29;20029;-75
2024/03/01 11:39:14;;;;;;;0.10;0.10;;;10.10;74.60;;;;;;4864714;29;20028;-75
2024/03/01 11:41:55;;;;;;;0.10;0.10;;;10.00;75.40;;;;;;4844536;29;20482;-75
2024/03/01 11:44:40;;;;;;;0.10;0.10;;;10.00;75.90;;;;;;4846234;29;20085;-75
2024/03/01 11:47:26;;;;;;;0.10;0.10;;;10.00;75.20;;;;;;4846391;29;20034;-75
2024/03/01 11:50:26;;;;;;;0.10;0.10;;;10.20;75.70;;;;;;4846441;29;20025;-75
2024/03/01 11:53:11;;;;;;;0.20;0.20;;;10.30;75.40;;;;;;4846047;29;20066;-75
2024/03/01 11:56:09;;;;;;;0.10;0.10;;;10.40;75.10;;;;;;4830424;29;20486;-75
2024/03/01 11:58:43;;;;;;;0.20;0.20;;;10.50;74.60;;;;;;4846412;29;20026;-75
2024/03/01 12:01:38;;;;;;;0.10;0.10;;;10.60;74.40;;;;;;4845883;29;20022;-75
2024/03/01 12:04:10;;;;;;;0.10;0.10;;;10.80;74.30;;;;;;4855193;29;20791;-75
2024/03/01 12:06:51;;;;;;;0.10;0.10;;;11.00;74.00;;;;;;4848492;29;20034;-76
2024/03/01 12:09:22;;;;;;;0.10;0.10;;;11.00;73.10;;;;;;4846124;29;20034;-75
2024/03/01 12:12:15;;;;;;;0.10;0.10;;;10.90;72.00;;;;;;4845927;29;20037;-75
2024/03/01 12:14:56;;;;;;;0.10;0.10;;;10.80;73.00;;;;;;4864164;29;20409;-75
2024/03/01 12:18:13;;;;;;;0.10;0.10;;;10.60;72.70;;;;;;4862495;29;20053;-75
2024/03/01 12:20:49;;;;;;;0.10;0.10;;;10.30;70.60;;;;;;4786347;29;20028;-75
2024/03/01 12:23:31;;;;;;;0.10;0.10;;;10.30;72.00;;;;;;4854583;29;20042;-75
2024/03/01 12:26:01;;;;;;;0.10;0.10;;;10.20;72.50;;;;;;4845897;29;20033;-75
2024/03/01 12:28:48;;;;;;;0.10;0.10;;;10.30;72.30;;;;;;4845756;29;20090;-74
2024/03/01 12:31:27;;;;;;;0.20;0.20;;;10.30;72.30;;;;;;4845468;29;20080;-74
2024/03/01 12:34:31;;;;;;;0.10;0.10;;;10.50;72.50;;;;;;4854176;29;20037;-74
2024/03/01 12:37:18;;;;;;;0.10;0.10;;;10.70;71.90;;;;;;4864278;29;20028;-74
2024/03/01 12:40:04;;;;;;;0.10;0.10;;;10.60;71.70;;;;;;4845824;29;20398;-74
2024/03/01 12:43:01;;;;;;;0.10;0.10;;;10.60;71.70;;;;;;4851932;29;20474;-74
2024/03/01 12:45:34;;;;;;;0.10;0.10;;;10.60;71.40;;;;;;4844909;29;20102;-75
2024/03/01 12:48:22;;;;;;;0.15;0.15;;;10.50;71.50;;;;;;4829286;29;20021;-74
2024/03/01 12:51:22;;;;;;;0.10;0.10;;;10.30;72.20;;;;;;4844293;29;20038;-74
2024/03/01 12:54:10;;;;;;;0.10;0.10;;;10.00;73.70;;;;;;4842139;29;20046;-74
2024/03/01 12:56:57;;;;;;;0.10;0.10;;;9.80;74.90;;;;;;4864026;29;20451;-74
2024/03/01 13:00:13;;;;;;;0.10;0.10;;;9.60;76.20;;;;;;4860450;29;20026;-74
2024/03/01 13:02:55;;;;;;;0.10;0.10;;;9.30;77.10;;;;;;4840316;29;20075;-75
2024/03/01 13:05:38;;;;;;;0.10;0.10;;;9.10;79.00;;;;;;4845754;29;20030;-74
2024/03/01 13:08:07;;;;;;;0.10;0.10;;;9.00;79.80;;;;;;4845357;29;20120;-74
2024/03/01 13:10:33;;;;;;;0.10;0.10;;;9.00;80.30;;;;;;4834874;29;20447;-74
2024/03/01 13:13:02;;;;;;;0.10;0.10;;;8.90;80.60;;;;;;4845334;29;20077;-74
2024/03/01 13:15:46;;;;;;;0.10;0.10;;;8.90;80.90;;;;;;4845394;29;20022;-74
2024/03/01 13:18:15;;;;;;;;;;;8.80;80.70;;;;;;4845619;29;20026;-74
2024/03/01 13:21:05;;;;;;;0.10;0.10;;;8.60;81.10;;;;;;4861709;29;19912;-74
2024/03/01 13:23:48;;;;;;;0.10;0.10;;;8.50;81.70;;;;;;4859260;29;20021;-74
2024/03/01 13:26:53;;;;;;;0.10;0.10;;;8.50;81.50;;;;;;4845461;29;20045;-74
2024/03/01 13:29:25;;;;;;;0.10;0.10;;;8.50;81.40;;;;;;4830416;29;20034;-74
2024/03/01 13:32:17;;;;;;;0.20;0.20;;;8.60;81.60;;;;;;4845300;29;20050;-74
2024/03/01 13:34:52;;;;;;;0.10;0.10;;;8.70;81.90;;;;;;4823558;29;20422;-74
2024/03/01 13:37:42;;;;;;;0.10;0.10;;;8.70;81.60;;;;;;4837887;29;20506;-74
2024/03/01 13:40:19;;;;;;;0.10;0.10;;;8.50;82.20;;;;;;4849237;29;20037;-74
2024/03/01 13:42:55;;;;;;;0.10;0.10;;;8.50;82.10;;;;;;4863368;29;20443;-73
2024/03/01 13:45:30;;;;;;;0.10;0.10;;;8.30;82.60;;;;;;4843411;29;20037;-74
2024/03/01 13:48:07;;;;;;;0.10;0.10;;;8.50;81.60;;;;;;4844857;29;20136;-74
2024/03/01 13:50:41;;;;;;;0.10;0.10;;;8.60;81.90;;;;;;4845133;29;20029;-74
2024/03/01 13:53:13;;;;;;;0.10;0.10;;;8.60;82.00;;;;;;4844751;29;20022;-74
2024/03/01 13:55:41;;;;;;;0.10;0.10;;;8.70;81.70;;;;;;4857397;29;20109;-74
2024/03/01 13:58:07;;;;;;;0.10;0.10;;;8.80;81.60;;;;;;4844605;29;20026;-74
2024/03/01 14:00:33;;;;;;;0.10;0.10;;;8.60;81.20;;;;;;4843892;29;20072;-75
2024/03/01 14:03:06;;;;;;;0.10;0.10;;;8.50;81.30;;;;;;4832024;29;20030;-74
2024/03/01 14:05:32;;;;;;;0.10;0.10;;;8.30;81.50;;;;;;4866611;29;20037;-74
2024/03/01 14:08:00;;;;;;;0.10;0.10;;;8.40;82.20;;;;;;4857818;29;20060;-74
2024/03/01 14:10:26;;;;;;;0.20;0.20;;;8.60;81.70;;;;;;4848321;29;20041;-74
2024/03/01 14:12:52;;;;;;;0.10;0.10;;;8.60;81.80;;;;;;4847917;29;20447;-74
2024/03/01 14:15:20;;;;;;;0.10;0.10;;;8.60;82.00;;;;;;4861513;29;20058;-74
2024/03/01 14:17:47;;;;;;;0.20;0.20;;;8.60;81.50;;;;;;4851773;29;20038;-74
2024/03/01 14:20:15;;;;;;;0.10;0.10;;;8.50;81.70;;;;;;4848110;29;20034;-74
2024/03/01 14:22:46;;;;;;;0.10;0.10;;;8.50;81.70;;;;;;4863366;29;20033;-74
2024/03/01 14:25:17;;;;;;;0.10;0.10;;;8.30;81.60;;;;;;4861078;29;20037;-74
2024/03/01 14:27:54;;;;;;;0.10;0.10;;;8.20;81.70;;;;;;4831104;29;20026;-74
2024/03/01 14:30:22;;;;;;;0.10;0.10;;;8.30;82.20;;;;;;4847641;29;20474;-75
2024/03/01 14:33:12;;;;;;;0.20;0.20;;;8.20;82.50;;;;;;4847900;29;20034;-74
2024/03/01 14:35:39;;;;;;;0.10;0.10;;;8.10;82.20;;;;;;4865918;29;20041;-74
2024/03/01 14:38:16;;;;;;;0.10;0.10;;;8.20;82.30;;;;;;4861486;29;20117;-74
2024/03/01 14:40:57;;;;;;;0.10;0.10;;;8.30;82.20;;;;;;4856356;29;20029;-74
2024/03/01 14:43:24;;;;;;;0.10;0.10;;;8.30;82.10;;;;;;4866032;29;20454;-74
2024/03/01 14:45:53;;;;;;;0.10;0.10;;;8.30;81.80;;;;;;4861377;29;20041;-74
2024/03/01 14:48:32;;;;;;;0.10;0.10;;;8.30;81.90;;;;;;4847540;29;20030;-74
2024/03/01 14:51:04;;;;;;;0.10;0.10;;;8.20;81.80;;;;;;4859864;29;20041;-74
2024/03/01 14:53:37;;;;;;;0.10;0.10;;;8.30;82.00;;;;;;4847579;29;20112;-74
2024/03/01 14:56:07;;;;;;;0.10;0.10;;;8.40;82.10;;;;;;4847004;29;20067;-74
2024/03/01 14:58:37;;;;;;;0.20;0.20;;;8.50;81.30;;;;;;4847312;29;20034;-74
2024/03/01 15:01:04;;;;;;;0.10;0.10;;;8.50;81.50;;;;;;4847199;29;20447;-74
2024/03/01 15:03:30;;;;;;;0.10;0.10;;;8.60;81.40;;;;;;4852213;29;20017;-74
2024/03/01 15:05:59;;;;;;;0.10;0.10;;;8.70;81.30;;;;;;4865552;29;20045;-74
2024/03/01 15:08:31;;;;;;;0.10;0.10;;;8.80;80.90;;;;;;4859356;29;20034;-74
2024/03/01 15:11:09;;;;;;;0.10;0.10;;;8.80;80.90;;;;;;4847633;29;20030;-74
2024/03/01 15:13:35;;;;;;;0.13;0.13;;;8.80;80.70;;;;;;4829755;29;20056;-74
2024/03/01 15:16:05;;;;;;;0.10;0.10;;;8.70;80.80;;;;;;4857318;29;20033;-74
2024/03/01 15:18:31;;;;;;;0.10;0.10;;;8.70;81.10;;;;;;4865476;29;20449;-73
2024/03/01 15:20:57;;;;;;;0.10;0.10;;;8.80;81.10;;;;;;4864105;29;20033;-73
2024/03/01 15:23:23;;;;;;;0.10;0.10;;;8.80;81.10;;;;;;4846783;29;20034;-74
2024/03/01 15:25:50;;;;;;;0.13;0.13;;;8.80;81.20;;;;;;4847164;29;20109;-74
2024/03/01 15:28:15;;;;;;;0.10;0.10;;;8.90;81.30;;;;;;4846830;29;20072;-74
2024/03/01 15:30:42;;;;;;;0.10;0.10;;;9.00;81.30;;;;;;4841289;29;20042;-74
2024/03/01 15:33:08;;;;;;;0.10;0.10;;;9.00;80.90;;;;;;4830845;29;20034;-74
2024/03/01 15:35:39;;;;;;;0.10;0.10;;;9.10;80.70;;;;;;4846390;29;20057;-74
2024/03/01 15:38:05;;;;;;;0.10;0.10;;;9.00;80.80;;;;;;4846929;29;20494;-74
2024/03/01 15:40:35;;;;;;;0.10;0.10;;;9.00;80.90;;;;;;4842222;29;20515;-73
2024/03/01 15:43:00;;;;;;;0.10;0.10;;;9.10;80.90;;;;;;4828246;29;20019;-74
2024/03/01 15:45:26;;;;;;;0.20;0.20;;;9.20;80.80;;;;;;4842353;29;20081;-74
2024/03/01 15:47:52;;;;;;;0.10;0.10;;;9.20;80.60;;;;;;4841091;29;20057;-74
2024/03/01 15:50:17;;;;;;;0.10;0.10;;;9.20;80.70;;;;;;4826936;29;20125;-74
2024/03/01 15:52:44;;;;;;;0.10;0.10;;;9.20;80.90;;;;;;4828232;29;20732;-74
2024/03/01 15:55:10;;;;;;;0.10;0.10;;;9.20;81.30;;;;;;4827762;29;20078;-74
2024/03/01 15:57:36;;;;;;;0.10;0.10;;;9.20;81.00;;;;;;4828136;29;20038;-74
2024/03/01 16:00:10;;;;;;;0.10;0.10;;;9.20;80.90;;;;;;4832642;29;20087;-73
2024/03/01 16:02:36;;;;;;;0.10;0.10;;;9.20;80.70;;;;;;4828037;29;20038;-74
2024/03/01 16:05:05;;;;;;;0.10;0.10;;;9.20;80.60;;;;;;4844829;29;20473;-74
2024/03/01 16:07:45;;;;;;;0.10;0.10;;;9.20;81.00;;;;;;4840374;29;20113;-76
2024/03/01 16:10:21;;;;;;;0.13;0.13;;;9.30;80.80;;;;;;4827938;29;20041;-74
2024/03/01 16:12:51;;;;;;;0.10;0.10;;;9.50;80.40;;;;;;4827834;29;20402;-74
2024/03/01 16:15:17;;;;;;;0.10;0.10;;;9.60;79.60;;;;;;4827965;29;20026;-74
2024/03/01 16:17:44;;;;;;;0.10;0.10;;;9.70;78.80;;;;;;4828055;29;20030;-74
2024/03/01 16:20:11;;;;;;;0.10;0.10;;;9.70;79.10;;;;;;4837807;29;20037;-74
2024/03/01 16:22:37;;;;;;;0.10;0.10;;;9.60;79.00;;;;;;4846093;29;20094;-74
2024/03/01 16:25:07;;;;;;;0.10;0.10;;;9.50;79.10;;;;;;4827498;29;20440;-76
2024/03/01 16:27:34;;;;;;;0.10;0.10;;;9.00;79.20;;;;;;4833266;29;20030;-74
2024/03/01 16:30:01;;;;;;;0.10;0.10;;;8.70;80.00;;;;;;4845744;29;20029;-74
2024/03/01 16:32:31;;;;;;;0.10;0.10;;;8.20;79.80;;;;;;4847063;29;20053;-74
2024/03/01 16:34:58;;;;;;;0.10;0.10;;;7.90;80.70;;;;;;4864032;29;20569;-74
2024/03/01 16:37:25;;;;;;;0.10;0.10;;;7.70;80.90;;;;;;4864250;29;20033;-74
2024/03/01 16:39:50;;;;;;;0.10;0.10;;;7.50;81.30;;;;;;4860784;29;20054;-74
2024/03/01 16:42:44;;;;;;;0.10;0.10;;;7.40;81.40;;;;;;4864104;29;20505;-74
2024/03/01 16:45:16;;;;;;;0.10;0.10;;;7.40;81.50;;;;;;4844696;29;20415;-73
2024/03/01 16:47:42;;;;;;;0.10;0.10;;;7.40;81.60;;;;;;4855375;29;20040;-76
2024/03/01 16:50:08;;;;;;;0.10;0.10;;;7.60;82.70;;;;;;4845397;29;20551;-74
2024/03/01 16:52:34;;;;;;;0.10;0.10;;;7.50;81.60;;;;;;4830030;29;20049;-74
2024/03/01 16:55:05;;;;;;;0.10;0.10;;;7.60;82.10;;;;;;4845563;29;20034;-74
2024/03/01 16:57:32;;;;;;;0.10;0.10;;;7.60;81.80;;;;;;4845575;29;20032;-73
2024/03/01 16:59:59;;;;;;;0.10;0.10;;;7.70;81.30;;;;;;4845618;29;20435;-74
2024/03/01 17:02:30;;;;;;;0.10;0.10;;;7.70;81.80;;;;;;4852542;29;20057;-74
2024/03/01 17:04:57;;;;;;;0.10;0.10;;;7.70;80.90;;;;;;4849255;29;20061;-73
2024/03/01 17:07:46;;;;;;;0.10;0.10;;;7.60;81.40;;;;;;4845235;29;20053;-76
2024/03/01 17:10:22;;;;;;;0.10;0.10;;;7.50;80.90;;;;;;4844839;29;20042;-73
2024/03/01 17:13:00;;;;;;;0.10;0.10;;;7.30;81.80;;;;;;4845352;29;20044;-74
2024/03/01 17:15:26;;;;;;;0.10;0.10;;;7.30;81.80;;;;;;4845558;29;20076;-74
2024/03/01 17:17:52;;;;;;;0.10;0.10;;;7.30;81.90;;;;;;4844976;29;20036;-74
2024/03/01 17:20:22;;;;;;;0.10;0.10;;;7.20;82.10;;;;;;4844005;29;20026;-74
2024/03/01 17:22:49;;;;;;;0.10;0.10;;;7.20;81.80;;;;;;4846830;29;20030;-73
2024/03/01 17:25:15;;;;;;;0.10;0.10;;;7.20;82.40;;;;;;4850427;29;20057;-73
2024/03/01 17:27:41;;;;;;;0.10;0.10;;;7.10;82.20;;;;;;4845167;29;20523;-74
2024/03/01 17:30:08;;;;;;;0.10;0.10;;;7.10;82.50;;;;;;4845256;29;20070;-74
2024/03/01 17:32:33;;;;;;;0.10;0.10;;;7.10;82.90;;;;;;4827075;29;20452;-73
2024/03/01 17:34:59;;;;;;;0.10;0.10;;;7.10;83.10;;;;;;4843444;29;20106;-73
2024/03/01 17:37:25;;;;;;;0.10;0.10;;;7.00;83.30;;;;;;4847474;29;20037;-74
2024/03/01 17:39:51;;;;;;;0.10;0.10;;;7.10;83.40;;;;;;4848762;29;20068;-73
2024/03/01 17:42:17;;;;;;;0.10;0.10;;;7.00;83.40;;;;;;4828693;29;20026;-73
2024/03/01 17:44:46;;;;;;;0.10;0.10;;;7.00;83.60;;;;;;4828891;29;20543;-73
2024/03/01 17:47:12;;;;;;;0.10;0.10;;;7.00;83.40;;;;;;4830232;29;20114;-73
2024/03/01 17:49:38;;;;;;;0.10;0.10;;;7.00;83.30;;;;;;4830352;29;20058;-74
2024/03/01 17:52:04;;;;;;;0.10;0.10;;;6.90;83.00;;;;;;4831124;29;20063;-75
2024/03/01 17:54:32;;;;;;;0.10;0.10;;;6.90;83.50;;;;;;4848713;29;20030;-73
2024/03/01 17:56:58;;;;;;;0.10;0.10;;;6.80;83.60;;;;;;4848370;29;20053;-73
2024/03/01 17:59:24;;;;;;;0.10;0.10;;;6.70;83.70;;;;;;4848198;29;20054;-74
2024/03/01 18:01:49;;;;;;;0.10;0.10;;;6.60;84.00;;;;;;4847759;29;20037;-73
2024/03/01 18:04:15;;;;;;;0.10;0.10;;;6.50;84.60;;;;;;4838653;29;20082;-74
2024/03/01 18:06:40;;;;;;;0.10;0.10;;;6.40;84.80;;;;;;4848258;29;20521;-73
2024/03/01 18:09:06;;;;;;;0.10;0.10;;;6.40;84.90;;;;;;4847771;29;20112;-73
2024/03/01 18:11:33;;;;;;;0.10;0.10;;;6.40;85.00;;;;;;4831553;29;20038;-73
2024/03/01 18:13:59;;;;;;;0.10;0.10;;;6.40;85.10;;;;;;4831361;29;20558;-73
2024/03/01 18:16:26;;;;;;;0.10;0.10;;;6.40;85.00;;;;;;4828135;29;20061;-74
2024/03/01 18:18:52;;;;;;;0.10;0.10;;;6.40;84.90;;;;;;4847807;29;20079;-74
2024/03/01 18:21:18;;;;;;;0.10;0.10;;;6.40;85.00;;;;;;4830743;29;20034;-74
2024/03/01 18:23:43;;;;;;;0.10;0.10;;;6.40;84.80;;;;;;4847982;29;20084;-74
2024/03/01 18:26:09;;;;;;;0.10;0.10;;;6.40;84.70;;;;;;4847366;29;20411;-74
2024/03/01 18:28:35;;;;;;;0.10;0.10;;;6.40;84.60;;;;;;4847965;29;20034;-74
2024/03/01 18:31:01;;;;;;;0.20;0.20;;;6.50;84.60;;;;;;4845295;29;20075;-74
2024/03/01 18:33:28;;;;;;;0.10;0.10;;;6.50;84.40;;;;;;4852569;29;20152;-74
2024/03/01 18:35:55;;;;;;;0.10;0.10;;;6.50;84.40;;;;;;4857313;29;20046;-74
2024/03/01 18:38:20;;;;;;;0.10;0.10;;;6.50;84.40;;;;;;4855814;29;20024;-74
2024/03/01 18:40:46;;;;;;;0.10;0.10;;;6.50;84.20;;;;;;4865942;29;20041;-74
2024/03/01 18:43:12;;;;;;;0.10;0.10;;;6.40;84.10;;;;;;4845415;29;20403;-74
2024/03/01 18:45:37;;;;;;;0.10;0.10;;;6.40;84.20;;;;;;4847478;29;20088;-74
2024/03/01 18:48:03;;;;;;;0.10;0.10;;;6.40;83.90;;;;;;4846774;29;20045;-74
2024/03/01 18:50:29;;;;;;;0.10;0.10;;;6.40;83.80;;;;;;4850747;29;20030;-74
2024/03/01 18:52:57;;;;;;;0.10;0.10;;;6.40;83.80;;;;;;4848974;29;20402;-74